To NAV CANADA Home Page Login to a new session Search on AWWS site Feedback and Comments Disclaimer Vers la page française équivalente Tips FAQ What's new on the site To the Forecasts and Observations / NOTAM section To "File a Flight Plan" website Publications and other links Update of the User's profile FIC Telephone Numbers My Weather Data Folder Route Weather Data Regional Weather Data Local Weather Data To the Forecasts and Observations / NOTAM section
Request Generated 01/21/2017 at 02:06:18 UTC . Weather information available at that time is displayed.

METAR/TAF

GREENWOOD/NS    

METAR CYZX 210200Z 05003KT 15SM BKN015 OVC033 M02/M04 A2996 RMK SC6SC2 WNDY HILL 06004KT SLP148=
METAR CYZX 210100Z 07004KT 15SM BKN015 OVC033 M02/M04 A2997 RMK SC6SC2 WNDY HILL 07002KT SLP150=
METAR CYZX 210000Z CCA 05004KT 15SM BKN015 OVC033 M02/M04 A2997 RMK SC6SC2 WNDY HILL 05004KT SLP151=
METAR CYZX 210000Z 05004KT 15SM BKN015 OVC033 M02/M04 A2997 RMK SC6SC2 WNDY HILL 05004KT SLP151=

TAF CYZX 202335Z 2100/2124 01005KT P6SM BKN015 OVC030 TEMPO 2100/2106
SCT015 OVC030
BECMG 2102/2104 VRB03KT
FM211200 VRB03KT P6SM BKN010 OVC110
FM211800 22005KT P6SM BKN020 OVC110
RMK NXT FCST BY 210600Z=
Your time UTC time
Weather data provided by Environment Canada and NAV CANADA